Terminal Aerodrome Forecast
Issued by NWS

Home | Current Version | Previous Version | Graphics & Text | Print | Product List | Glossary On
Versions: 1 2 3 4 5 6 7 8 9 10 11 12 13 14 15 16 17 18 19 20 21 22 23
970
FTUS43 KLOT 212103 AAA
TAFDPA
TAF AMD
KDPA 212103Z 2121/2218 10004KT 3/4SM -DZ BR OVC003
      TEMPO 2121/2123 1/4SM -DZ FG
     FM212300 15007KT 1/2SM -DZ FG OVC003
      TEMPO 2123/2203 1/4SM -SHRA FG
     FM220300 10006KT 1/4SM -SHRA FG OVC003
     FM220900 12007KT 1SM SHRA BR OVC004 PROB30 2209/2215 -TSRA BR
      OVC003CB=

USA.gov is the U.S. government's official web portal to all federal, state and local government web resources and services.